Aspen Park, Colorado
Current Conditions -  °F | °C
As of 2:13 AM on Monday 22 Dec 2014 (Local Time) from KAPA Reporting Station
Light Snow Light Snow  
Wind Chill: 24°   Ceiling: 2700
Heat Index: 32°   Visibility: 2mi
Dew Point: 31°   Wind: 9mph
Humidity: 96%   Direction: 310°NW
Pressure: 29.72"   Gusts: NA
Location:  39.4975°N, 105.289°W
Report Text: KAPA 220913Z 31008KT 2SM -SN BR BKN027 OVC042 00/M01 A2972 RMK AO2 P0000 T00001006
Loading
Personal Weather Stations






























Interactive Weather Map New forecast layout! Learn more

10-Day Weather Forecast

Advertisements
Track Severe Weather on mobile